createdAt,value
2018-07-20T00:00:56.360Z,1014.9
2018-07-20T00:05:56.347Z,1015
2018-07-20T00:10:56.258Z,1015.1
2018-07-20T00:15:56.256Z,1015.1
2018-07-20T00:20:56.261Z,1015.1
2018-07-20T00:25:56.442Z,1015.1
2018-07-20T00:30:59.851Z,1015.2
2018-07-20T00:35:59.590Z,1015
2018-07-20T00:41:09.820Z,1015.1
2018-07-20T00:46:09.486Z,1015.2
2018-07-20T00:51:09.475Z,1015.1
2018-07-20T00:56:09.617Z,1015.2
2018-07-20T01:01:09.674Z,1015.2
2018-07-20T01:06:09.482Z,1015.2
2018-07-20T01:11:09.476Z,1015.2
2018-07-20T01:16:09.686Z,1015.3
2018-07-20T01:21:09.482Z,1015.4
2018-07-20T01:26:09.483Z,1015.4
2018-07-20T01:31:09.494Z,1015.4
2018-07-20T01:36:09.730Z,1015.4
2018-07-20T01:41:11.100Z,1015.4
2018-07-20T01:46:10.948Z,1015.4
2018-07-20T01:51:23.268Z,1015.4
2018-07-20T01:56:23.000Z,1015.4
2018-07-20T02:01:23.000Z,1015.3
2018-07-20T02:06:23.019Z,1015.4
2018-07-20T02:11:23.019Z,1015.4
2018-07-20T02:16:23.004Z,1015.5
2018-07-20T02:21:23.048Z,1015.5
2018-07-20T02:26:23.290Z,1015.4
2018-07-20T02:31:23.504Z,1015.4
2018-07-20T02:36:35.091Z,1015.4
2018-07-20T02:41:34.811Z,1015.4
2018-07-20T02:46:35.174Z,1015.4
2018-07-20T02:51:35.214Z,1015.4
2018-07-20T02:56:36.028Z,1015.3
2018-07-20T03:01:43.236Z,1015.3
2018-07-20T03:06:42.134Z,1015.5
2018-07-20T03:11:42.145Z,1015.5
2018-07-20T03:16:42.117Z,1015.4
2018-07-20T03:21:42.129Z,1015.4
2018-07-20T03:26:42.847Z,1015.4
2018-07-20T03:31:42.866Z,1015.4
2018-07-20T03:36:44.767Z,1015.4
2018-07-20T03:41:44.662Z,1015.4
2018-07-20T03:46:56.900Z,1015.4
2018-07-20T03:51:56.637Z,1015.4
2018-07-20T03:56:56.649Z,1015.3
2018-07-20T04:01:56.634Z,1015.3
2018-07-20T04:06:56.645Z,1015.3
2018-07-20T04:11:56.658Z,1015.3
2018-07-20T04:16:56.682Z,1015.2
2018-07-20T04:22:02.023Z,1015.1
2018-07-20T04:27:01.768Z,1015.1
2018-07-20T04:32:14.177Z,1015
2018-07-20T04:37:14.042Z,1015.1
2018-07-20T04:42:14.048Z,1015.1
2018-07-20T04:47:14.086Z,1015.1
2018-07-20T04:52:14.122Z,1015.1
2018-07-20T04:57:14.046Z,1015.1
2018-07-20T05:02:13.919Z,1015.1
2018-07-20T05:07:13.924Z,1015.1
2018-07-20T05:12:13.945Z,1015
2018-07-20T05:17:26.089Z,1014.8
2018-07-20T05:22:25.809Z,1014.8
2018-07-20T05:27:39.973Z,1014.8
2018-07-20T05:32:30.004Z,1014.6
2018-07-20T05:37:29.708Z,1014.6
2018-07-20T05:42:29.709Z,1014.5
2018-07-20T05:47:29.845Z,1014.4
2018-07-20T05:52:29.866Z,1014.4
2018-07-20T05:57:29.733Z,1014.4
2018-07-20T06:02:29.727Z,1014.2
2018-07-20T06:07:29.878Z,1014.2
2018-07-20T06:12:29.938Z,1014.2
2018-07-20T06:17:32.369Z,1014.3
2018-07-20T06:22:32.084Z,1014.1
2018-07-20T06:27:41.407Z,1014.2
2018-07-20T06:32:41.180Z,1014.2
2018-07-20T06:37:41.133Z,1014.1
2018-07-20T06:42:41.154Z,1014
2018-07-20T06:47:41.163Z,1014.1
2018-07-20T06:52:42.100Z,1014
2018-07-20T06:57:41.833Z,1014
2018-07-20T07:02:42.044Z,1014
2018-07-20T07:07:41.975Z,1013.9
2018-07-20T07:12:42.046Z,1013.9
2018-07-20T07:17:41.866Z,1014
2018-07-20T07:22:41.971Z,1013.8
2018-07-20T07:27:42.437Z,1013.8
2018-07-20T07:32:42.360Z,1013.8
2018-07-20T07:37:42.396Z,1013.6
2018-07-20T07:42:46.351Z,1013.6
2018-07-20T07:47:46.341Z,1013.6
2018-07-20T07:52:48.753Z,1013.6
2018-07-20T07:57:48.608Z,1013.4
2018-07-20T08:03:01.321Z,1013.6
2018-07-20T08:08:01.055Z,1013.4
2018-07-20T08:13:01.170Z,1013.4
2018-07-20T08:18:01.083Z,1013.4
2018-07-20T08:23:01.486Z,1013.3
2018-07-20T08:28:00.937Z,1013.3
2018-07-20T08:33:00.953Z,1013.3
2018-07-20T08:38:01.035Z,1013.1
2018-07-20T08:43:01.065Z,1013.3
2018-07-20T08:48:00.949Z,1013.1
2018-07-20T08:53:00.962Z,1012.9
2018-07-20T08:58:01.090Z,1013
2018-07-20T09:03:05.600Z,1013
2018-07-20T09:08:05.355Z,1012.9
2018-07-20T09:13:18.134Z,1012.7
2018-07-20T09:18:18.110Z,1012.8
2018-07-20T09:23:17.868Z,1012.8
2018-07-20T09:28:18.056Z,1012.6
2018-07-20T09:33:18.096Z,1012.7
2018-07-20T09:38:17.892Z,1012.6
2018-07-20T09:43:18.073Z,1012.5
2018-07-20T09:48:18.001Z,1012.5
2018-07-20T09:53:18.253Z,1012.5
2018-07-20T09:58:33.668Z,1012.5
2018-07-20T10:03:33.043Z,1012.4
2018-07-20T10:08:32.897Z,1012.3
2018-07-20T10:13:32.887Z,1012.4
2018-07-20T10:18:33.067Z,1012.3
2018-07-20T10:23:34.769Z,1012.3
2018-07-20T10:28:34.973Z,1012.2
2018-07-20T10:33:37.393Z,1012.2
2018-07-20T10:38:37.289Z,1012.2
2018-07-20T10:43:52.409Z,1012.2
2018-07-20T10:48:52.125Z,1012
2018-07-20T10:53:52.336Z,1012
2018-07-20T10:58:52.374Z,1011.9
2018-07-20T11:03:52.161Z,1011.7
2018-07-20T11:08:52.161Z,1011.7
2018-07-20T11:13:52.436Z,1011.6
2018-07-20T11:18:54.586Z,1011.6
2018-07-20T11:23:54.589Z,1011.4
2018-07-20T11:29:04.998Z,1011.5
2018-07-20T11:34:04.732Z,1011.4
2018-07-20T11:39:04.934Z,1011.4
2018-07-20T11:44:04.708Z,1011.3
2018-07-20T11:49:04.905Z,1011.1
2018-07-20T11:54:04.947Z,1011.1
2018-07-20T11:59:04.883Z,1011
2018-07-20T12:04:04.924Z,1010.9
2018-07-20T12:09:04.919Z,1010.8
2018-07-20T12:14:16.943Z,1010.9
2018-07-20T12:19:16.796Z,1010.8
2018-07-20T12:24:16.806Z,1010.6
2018-07-20T12:29:16.850Z,1010.7
2018-07-20T12:34:17.386Z,1010.6
2018-07-20T12:39:16.687Z,1010.5
2018-07-20T12:44:16.699Z,1010.4
2018-07-20T12:49:19.300Z,1010.3
2018-07-20T12:54:18.990Z,1010.4
2018-07-20T12:59:31.270Z,1010.4
2018-07-20T13:04:31.161Z,1010.4
2018-07-20T13:09:31.225Z,1010.3
2018-07-20T13:14:31.138Z,1010.2
2018-07-20T13:19:31.139Z,1010.3
2018-07-20T13:24:31.036Z,1010.2
2018-07-20T13:29:31.139Z,1010.3
2018-07-20T13:34:34.356Z,1010.2
2018-07-20T13:39:34.219Z,1010
2018-07-20T13:44:49.303Z,1010.1
2018-07-20T13:49:49.031Z,1010.1
2018-07-20T13:54:49.027Z,1009.9
2018-07-20T13:59:51.953Z,1009.8
2018-07-20T14:04:49.147Z,1009.9
2018-07-20T14:09:49.537Z,1009.9
2018-07-20T14:14:49.519Z,1009.9
2018-07-20T14:19:49.685Z,1009.8
2018-07-20T14:24:49.668Z,1009.8
2018-07-20T14:30:04.666Z,1009.6
2018-07-20T14:35:04.654Z,1009.7
2018-07-20T14:40:04.571Z,1009.7
2018-07-20T14:45:04.555Z,1009.7
2018-07-20T14:50:04.403Z,1009.6
2018-07-20T14:55:04.413Z,1009.6
2018-07-20T15:00:04.562Z,1009.6
2018-07-20T15:05:08.185Z,1009.5
2018-07-20T15:10:08.265Z,1009.4
2018-07-20T15:15:20.355Z,1009.4
2018-07-20T15:20:20.110Z,1009.3
2018-07-20T15:25:20.297Z,1009.3
2018-07-20T15:30:20.228Z,1009.3
2018-07-20T15:35:20.166Z,1009.3
2018-07-20T15:40:20.094Z,1009.2
2018-07-20T15:45:20.232Z,1009.1
2018-07-20T15:50:20.107Z,1009.1
2018-07-20T15:55:23.407Z,1009.1
2018-07-20T16:00:20.099Z,1009
2018-07-20T16:05:20.114Z,1009
2018-07-20T16:10:20.106Z,1009
2018-07-20T16:15:22.783Z,1009
2018-07-20T16:20:22.762Z,1009
2018-07-20T16:25:35.651Z,1008.9
2018-07-20T16:30:35.143Z,1008.9
2018-07-20T16:35:35.041Z,1008.9
2018-07-20T16:40:35.026Z,1008.8
2018-07-20T16:45:35.119Z,1008.8
2018-07-20T16:50:35.048Z,1008.8
2018-07-20T16:55:35.158Z,1008.9
2018-07-20T17:00:38.299Z,1009
2018-07-20T17:05:38.013Z,1008.9
2018-07-20T17:10:51.260Z,1008.9
2018-07-20T17:15:50.971Z,1009.1
2018-07-20T17:20:51.117Z,1009.1
2018-07-20T17:25:51.007Z,1009.1
2018-07-20T17:30:51.173Z,1009
2018-07-20T17:35:51.009Z,1009
2018-07-20T17:40:51.128Z,1009
2018-07-20T17:45:51.231Z,1009.1
2018-07-20T17:50:50.989Z,1009
2018-07-20T17:55:51.003Z,1009.1
2018-07-20T18:00:51.191Z,1009.1
2018-07-20T18:05:51.124Z,1009.1
2018-07-20T18:10:58.725Z,1009.1
2018-07-20T18:15:51.481Z,1009.2
2018-07-20T18:21:05.247Z,1009.2
2018-07-20T18:26:06.131Z,1009.2
2018-07-20T18:31:04.955Z,1009.3
2018-07-20T18:36:04.961Z,1009.3
2018-07-20T18:41:05.189Z,1009.3
2018-07-20T18:46:05.001Z,1009.5
2018-07-20T18:51:05.121Z,1009.4
2018-07-20T18:56:10.219Z,1009.5
2018-07-20T19:01:09.929Z,1009.7
2018-07-20T19:06:22.219Z,1009.7
2018-07-20T19:11:21.963Z,1009.9
2018-07-20T19:16:21.934Z,1009.9
2018-07-20T19:21:22.138Z,1009.9
2018-07-20T19:26:22.183Z,1009.9
2018-07-20T19:31:21.975Z,1010
2018-07-20T19:36:22.133Z,1010.1
2018-07-20T19:41:21.973Z,1010.1
2018-07-20T19:46:22.238Z,1010.2
2018-07-20T19:51:22.112Z,1010.4
2018-07-20T19:56:22.185Z,1010.4
2018-07-20T20:01:25.006Z,1010.4
2018-07-20T20:06:24.143Z,1010.3
2018-07-20T20:11:27.754Z,1010.3
2018-07-20T20:16:34.364Z,1010.3
2018-07-20T20:21:34.248Z,1010.3
2018-07-20T20:26:34.289Z,1010.4
2018-07-20T20:31:34.286Z,1010.3
2018-07-20T20:36:34.178Z,1010.4
2018-07-20T20:41:34.244Z,1010.3
2018-07-20T20:46:34.314Z,1010.3
2018-07-20T20:51:37.432Z,1010.3
2018-07-20T20:56:37.118Z,1010.5
2018-07-20T21:01:48.253Z,1010.5
2018-07-20T21:06:48.087Z,1010.6
2018-07-20T21:11:49.860Z,1010.7
2018-07-20T21:16:49.269Z,1010.8
2018-07-20T21:21:47.902Z,1010.9
2018-07-20T21:26:47.883Z,1010.8
2018-07-20T21:31:47.878Z,1010.8
2018-07-20T21:36:48.039Z,1010.8
2018-07-20T21:41:47.881Z,1010.8
2018-07-20T21:46:47.922Z,1010.8
2018-07-20T21:51:47.914Z,1010.9
2018-07-20T21:56:48.084Z,1010.9
2018-07-20T22:01:50.990Z,1010.8
2018-07-20T22:06:50.877Z,1010.8
2018-07-20T22:12:03.453Z,1010.9
2018-07-20T22:17:03.184Z,1010.9
2018-07-20T22:22:03.419Z,1010.8
2018-07-20T22:27:03.195Z,1010.9
2018-07-20T22:32:03.184Z,1010.9
2018-07-20T22:37:03.191Z,1011
2018-07-20T22:42:03.217Z,1010.9
2018-07-20T22:47:04.538Z,1010.9
2018-07-20T22:52:04.398Z,1011
2018-07-20T22:57:17.039Z,1011.1
2018-07-20T23:02:16.982Z,1011
2018-07-20T23:07:16.771Z,1011
2018-07-20T23:12:16.772Z,1010.9
2018-07-20T23:17:16.901Z,1010.9
2018-07-20T23:22:16.901Z,1010.8
2018-07-20T23:27:16.939Z,1010.8
2018-07-20T23:32:19.682Z,1010.8
2018-07-20T23:37:19.476Z,1010.7
2018-07-20T23:42:30.298Z,1010.8
2018-07-20T23:47:30.222Z,1011
2018-07-20T23:52:30.237Z,1011
2018-07-20T23:57:30.019Z,1011
